Time,TemperatureF,DewpointF,PressureIn,WindDirection,WindDirectionDegrees,WindSpeedMPH,WindSpeedGustMPH,Humidity,HourlyPrecipIn,Conditions,Clouds,dailyrainin,SoftwareType,DateUTC
2013-01-08 00:01:00,29.0,25.0,30.25,SSW,193,1.0,5.0,83,0.00,,,0.00,weatherlink.com 1.10,2013-01-08 05:01:00,
2013-01-08 00:16:00,28.6,24.0,30.25,SSW,192,0.0,3.0,84,0.00,,,0.00,weatherlink.com 1.10,2013-01-08 05:16:00,
2013-01-08 00:31:00,28.4,24.0,30.25,SSE,167,1.0,3.0,84,0.00,,,0.00,weatherlink.com 1.10,2013-01-08 05:31:00,
2013-01-08 00:46:00,28.3,24.0,30.25,SSE,166,0.0,2.0,84,0.00,,,0.00,weatherlink.com 1.10,2013-01-08 05:46:00,
2013-01-08 01:02:00,28.2,24.0,30.26,SSE,167,0.0,3.0,84,0.00,,,0.00,weatherlink.com 1.10,2013-01-08 06:02:00,
2013-01-08 01:17:00,28.0,24.0,30.26,SSE,166,0.0,2.0,84,0.00,,,0.00,weatherlink.com 1.10,2013-01-08 06:17:00,
2013-01-08 01:32:00,27.7,24.0,30.25,SSE,167,0.0,3.0,84,0.00,,,0.00,weatherlink.com 1.10,2013-01-08 06:32:00,
2013-01-08 01:47:00,27.6,24.0,30.26,South,171,0.0,3.0,85,0.00,,,0.00,weatherlink.com 1.10,2013-01-08 06:47:00,
2013-01-08 02:02:00,27.7,24.0,30.27,SSE,153,0.0,2.0,85,0.00,,,0.00,weatherlink.com 1.10,2013-01-08 07:02:00,
2013-01-08 02:17:00,27.6,24.0,30.26,SSW,207,2.0,4.0,85,0.00,,,0.00,weatherlink.com 1.10,2013-01-08 07:17:00,
2013-01-08 02:32:00,27.6,24.0,30.26,South,174,1.0,2.0,85,0.00,,,0.00,weatherlink.com 1.10,2013-01-08 07:32:00,
2013-01-08 02:47:00,27.5,24.0,30.26,SW,214,0.0,2.0,85,0.00,,,0.00,weatherlink.com 1.10,2013-01-08 07:47:00,
2013-01-08 03:02:00,27.5,24.0,30.27,South,185,0.0,2.0,85,0.00,,,0.00,weatherlink.com 1.10,2013-01-08 08:02:00,
2013-01-08 03:17:00,27.3,23.0,30.27,South,185,1.0,2.0,85,0.00,,,0.00,weatherlink.com 1.10,2013-01-08 08:17:00,
2013-01-08 03:32:00,27.1,23.0,30.26,South,188,0.0,4.0,85,0.00,,,0.00,weatherlink.com 1.10,2013-01-08 08:32:00,
2013-01-08 03:47:00,27.1,23.0,30.26,SSE,166,1.0,3.0,85,0.00,,,0.00,weatherlink.com 1.10,2013-01-08 08:47:00,
2013-01-08 04:02:00,27.4,24.0,30.26,SW,216,0.0,5.0,85,0.00,,,0.00,weatherlink.com 1.10,2013-01-08 09:02:00,
2013-01-08 04:17:00,27.8,24.0,30.26,SE,141,2.0,3.0,84,0.00,,,0.00,weatherlink.com 1.10,2013-01-08 09:17:00,
2013-01-08 04:32:00,27.8,24.0,30.27,West,269,2.0,5.0,84,0.00,,,0.00,weatherlink.com 1.10,2013-01-08 09:32:00,
2013-01-08 04:47:00,28.3,24.0,30.27,SW,219,0.0,4.0,84,0.00,,,0.00,weatherlink.com 1.10,2013-01-08 09:47:00,
2013-01-08 05:02:00,28.5,24.0,30.27,SSW,208,2.0,5.0,83,0.00,,,0.00,weatherlink.com 1.10,2013-01-08 10:02:00,
2013-01-08 05:17:00,28.8,24.0,30.27,SSW,207,1.0,4.0,82,0.00,,,0.00,weatherlink.com 1.10,2013-01-08 10:17:00,
2013-01-08 05:32:00,28.8,24.0,30.27,SSE,156,0.0,4.0,82,0.00,,,0.00,weatherlink.com 1.10,2013-01-08 10:32:00,
2013-01-08 05:47:00,28.7,24.0,30.27,SSW,199,2.0,4.0,82,0.00,,,0.00,weatherlink.com 1.10,2013-01-08 10:47:00,
2013-01-08 06:02:00,28.7,24.0,30.28,SW,233,1.0,4.0,82,0.00,,,0.00,weatherlink.com 1.10,2013-01-08 11:02:00,
2013-01-08 06:17:00,28.6,24.0,30.28,SSW,210,2.0,4.0,82,0.00,,,0.00,weatherlink.com 1.10,2013-01-08 11:17:00,
2013-01-08 06:32:00,28.5,24.0,30.28,SW,233,0.0,3.0,83,0.00,,,0.00,weatherlink.com 1.10,2013-01-08 11:32:00,
2013-01-08 06:47:00,28.3,24.0,30.29,SW,218,0.0,3.0,83,0.00,,,0.00,weatherlink.com 1.10,2013-01-08 11:47:00,
2013-01-08 07:02:00,28.2,24.0,30.29,SSW,208,0.0,2.0,83,0.00,,,0.00,weatherlink.com 1.10,2013-01-08 12:02:00,
2013-01-08 07:17:00,28.1,24.0,30.29,SW,222,0.0,2.0,83,0.00,,,0.00,weatherlink.com 1.10,2013-01-08 12:17:00,
2013-01-08 07:32:00,28.0,24.0,30.30,SW,222,0.0,2.0,83,0.00,,,0.00,weatherlink.com 1.10,2013-01-08 12:32:00,
2013-01-08 07:47:00,27.9,23.0,30.30,SW,222,0.0,0.0,83,0.00,,,0.00,weatherlink.com 1.10,2013-01-08 12:47:00,
2013-01-08 08:02:00,27.5,23.0,30.31,SSW,206,0.0,2.0,84,0.00,,,0.00,weatherlink.com 1.10,2013-01-08 13:02:00,
2013-01-08 08:17:00,27.4,23.0,30.31,North,4,0.0,1.0,84,0.00,,,0.00,weatherlink.com 1.10,2013-01-08 13:17:00,
2013-01-08 08:32:00,27.4,23.0,30.32,North,4,0.0,0.0,84,0.00,,,0.00,weatherlink.com 1.10,2013-01-08 13:32:00,
2013-01-08 08:47:00,27.6,23.0,30.32,North,4,0.0,1.0,84,0.00,,,0.00,weatherlink.com 1.10,2013-01-08 13:47:00,
2013-01-08 09:02:00,27.8,23.0,30.32,East,93,0.0,1.0,83,0.00,,,0.00,weatherlink.com 1.10,2013-01-08 14:02:00,
2013-01-08 09:17:00,28.2,24.0,30.32,SSW,193,0.0,2.0,83,0.00,,,0.00,weatherlink.com 1.10,2013-01-08 14:17:00,
2013-01-08 09:32:00,28.8,24.0,30.32,West,269,0.0,4.0,83,0.00,,,0.00,weatherlink.com 1.10,2013-01-08 14:32:00,
2013-01-08 09:47:00,30.0,25.0,30.32,SE,129,0.0,4.0,80,0.00,,,0.00,weatherlink.com 1.10,2013-01-08 14:47:00,
2013-01-08 10:02:00,31.4,25.0,30.33,SSW,209,1.0,3.0,78,0.00,,,0.00,weatherlink.com 1.10,2013-01-08 15:02:00,
2013-01-08 10:17:00,32.1,26.0,30.33,SW,216,2.0,4.0,77,0.00,,,0.00,weatherlink.com 1.10,2013-01-08 15:17:00,
2013-01-08 10:33:00,32.7,26.0,30.33,SW,221,2.0,3.0,76,0.00,,,0.00,weatherlink.com 1.10,2013-01-08 15:33:00,
2013-01-08 10:48:00,33.3,26.0,30.32,SSE,165,2.0,4.0,75,0.00,,,0.00,weatherlink.com 1.10,2013-01-08 15:48:00,
2013-01-08 11:18:00,35.1,27.0,30.32,South,172,1.0,4.0,72,0.00,,,0.00,weatherlink.com 1.10,2013-01-08 16:18:00,
2013-01-08 11:33:00,35.8,27.0,30.32,SSW,194,1.0,4.0,70,0.00,,,0.00,weatherlink.com 1.10,2013-01-08 16:33:00,
2013-01-08 11:48:00,36.2,27.0,30.32,WSW,238,0.0,6.0,70,0.00,,,0.00,weatherlink.com 1.10,2013-01-08 16:48:00,
2013-01-08 12:18:00,36.8,27.0,30.32,SW,220,2.0,5.0,67,0.00,,,0.00,weatherlink.com 1.10,2013-01-08 17:18:00,
2013-01-08 12:33:00,37.1,27.0,30.31,SSW,197,3.0,5.0,66,0.00,,,0.00,weatherlink.com 1.10,2013-01-08 17:33:00,
2013-01-08 12:48:00,37.5,27.0,30.31,SW,220,2.0,4.0,67,0.00,,,0.00,weatherlink.com 1.10,2013-01-08 17:48:00,
2013-01-08 13:03:00,37.9,27.0,30.30,SW,216,0.0,4.0,66,0.00,,,0.00,weatherlink.com 1.10,2013-01-08 18:03:00,
2013-01-08 13:18:00,38.7,27.0,30.29,SSW,204,2.0,4.0,64,0.00,,,0.00,weatherlink.com 1.10,2013-01-08 18:18:00,
2013-01-08 13:33:00,39.8,28.0,30.29,SE,131,0.0,3.0,64,0.00,,,0.00,weatherlink.com 1.10,2013-01-08 18:33:00,
2013-01-08 13:48:00,40.7,28.0,30.30,South,177,0.0,3.0,61,0.00,,,0.00,weatherlink.com 1.10,2013-01-08 18:48:00,
2013-01-08 14:03:00,40.6,28.0,30.30,South,187,1.0,3.0,60,0.00,,,0.00,weatherlink.com 1.10,2013-01-08 19:03:00,
2013-01-08 14:18:00,40.6,27.0,30.30,SW,226,3.0,4.0,59,0.00,,,0.00,weatherlink.com 1.10,2013-01-08 19:18:00,
2013-01-08 14:33:00,41.5,28.0,30.30,SSE,165,0.0,4.0,58,0.00,,,0.00,weatherlink.com 1.10,2013-01-08 19:33:00,
2013-01-08 14:48:00,41.5,27.0,30.30,SSE,156,1.0,7.0,57,0.00,,,0.00,weatherlink.com 1.10,2013-01-08 19:48:00,
2013-01-08 15:03:00,41.6,28.0,30.31,SW,231,1.0,4.0,58,0.00,,,0.00,weatherlink.com 1.10,2013-01-08 20:03:00,
2013-01-08 15:18:00,41.3,28.0,30.31,SSE,152,0.0,3.0,59,0.00,,,0.00,weatherlink.com 1.10,2013-01-08 20:18:00,
2013-01-08 15:33:00,41.8,27.0,30.30,SW,229,0.0,3.0,57,0.00,,,0.00,weatherlink.com 1.10,2013-01-08 20:33:00,
2013-01-08 15:48:00,41.7,28.0,30.31,South,173,0.0,2.0,59,0.00,,,0.00,weatherlink.com 1.10,2013-01-08 20:48:00,
2013-01-08 16:03:00,41.5,28.0,30.31,SSW,203,1.0,2.0,59,0.00,,,0.00,weatherlink.com 1.10,2013-01-08 21:03:00,
2013-01-08 16:18:00,41.0,28.0,30.31,SSW,208,1.0,3.0,61,0.00,,,0.00,weatherlink.com 1.10,2013-01-08 21:18:00,
2013-01-08 16:33:00,40.5,29.0,30.32,SW,231,2.0,2.0,63,0.00,,,0.00,weatherlink.com 1.10,2013-01-08 21:33:00,
2013-01-08 16:48:00,40.0,29.0,30.32,SSE,168,1.0,4.0,64,0.00,,,0.00,weatherlink.com 1.10,2013-01-08 21:48:00,
2013-01-08 17:18:00,38.9,29.0,30.31,SSE,168,0.0,1.0,69,0.00,,,0.00,weatherlink.com 1.10,2013-01-08 22:18:00,
2013-01-08 17:33:00,38.3,30.0,30.31,SSE,168,0.0,2.0,71,0.00,,,0.00,weatherlink.com 1.10,2013-01-08 22:33:00,
2013-01-08 17:48:00,37.7,29.0,30.31,SSE,167,0.0,2.0,72,0.00,,,0.00,weatherlink.com 1.10,2013-01-08 22:48:00,
2013-01-08 18:03:00,37.2,30.0,30.30,SSE,167,0.0,0.0,74,0.00,,,0.00,weatherlink.com 1.10,2013-01-08 23:03:00,
2013-01-08 18:18:00,36.7,29.0,30.31,SSE,168,0.0,0.0,75,0.00,,,0.00,weatherlink.com 1.10,2013-01-08 23:18:00,
2013-01-08 18:33:00,36.2,29.0,30.31,SSE,167,0.0,1.0,76,0.00,,,0.00,weatherlink.com 1.10,2013-01-08 23:33:00,
2013-01-08 18:48:00,35.7,29.0,30.31,SSE,167,0.0,1.0,77,0.00,,,0.00,weatherlink.com 1.10,2013-01-08 23:48:00,
2013-01-08 19:03:00,35.3,29.0,30.31,SSE,168,0.0,0.0,78,0.00,,,0.00,weatherlink.com 1.10,2013-01-09 00:03:00,
2013-01-08 19:18:00,34.9,29.0,30.31,SSE,168,0.0,0.0,78,0.00,,,0.00,weatherlink.com 1.10,2013-01-09 00:18:00,
2013-01-08 19:33:00,34.6,29.0,30.31,SSE,168,0.0,0.0,79,0.00,,,0.00,weatherlink.com 1.10,2013-01-09 00:33:00,
2013-01-08 19:48:00,34.3,29.0,30.32,SSE,167,0.0,0.0,80,0.00,,,0.00,weatherlink.com 1.10,2013-01-09 00:48:00,
2013-01-08 20:03:00,33.9,29.0,30.32,SSE,168,0.0,0.0,81,0.00,,,0.00,weatherlink.com 1.10,2013-01-09 01:03:00,
2013-01-08 20:18:00,33.9,29.0,30.32,SSE,168,0.0,1.0,82,0.00,,,0.00,weatherlink.com 1.10,2013-01-09 01:18:00,
2013-01-08 20:33:00,33.9,29.0,30.32,West,266,0.0,2.0,81,0.00,,,0.00,weatherlink.com 1.10,2013-01-09 01:33:00,
2013-01-08 20:48:00,33.6,29.0,30.31,SE,135,0.0,1.0,83,0.00,,,0.00,weatherlink.com 1.10,2013-01-09 01:48:00,
2013-01-08 21:03:00,33.7,29.0,30.31,ESE,118,0.0,1.0,83,0.00,,,0.00,weatherlink.com 1.10,2013-01-09 02:03:00,
2013-01-08 21:18:00,33.9,30.0,30.30,ESE,118,0.0,2.0,84,0.00,,,0.00,weatherlink.com 1.10,2013-01-09 02:18:00,
2013-01-08 21:33:00,34.0,29.0,30.29,ESE,118,0.0,1.0,83,0.00,,,0.00,weatherlink.com 1.10,2013-01-09 02:33:00,
2013-01-08 21:48:00,33.9,29.0,30.29,SE,128,0.0,3.0,83,0.00,,,0.00,weatherlink.com 1.10,2013-01-09 02:48:00,
2013-01-08 22:03:00,34.1,30.0,30.28,SE,129,1.0,3.0,83,0.00,,,0.00,weatherlink.com 1.10,2013-01-09 03:03:00,
2013-01-08 22:18:00,34.5,30.0,30.27,SE,129,1.0,2.0,82,0.00,,,0.00,weatherlink.com 1.10,2013-01-09 03:18:00,
2013-01-08 22:33:00,34.7,30.0,30.27,SE,129,0.0,2.0,82,0.00,,,0.00,weatherlink.com 1.10,2013-01-09 03:33:00,
2013-01-08 22:48:00,34.6,30.0,30.27,SE,129,1.0,2.0,82,0.00,,,0.00,weatherlink.com 1.10,2013-01-09 03:48:00,
2013-01-08 23:03:00,34.4,29.0,30.27,SE,129,0.0,2.0,82,0.00,,,0.00,weatherlink.com 1.10,2013-01-09 04:03:00,
2013-01-08 23:18:00,34.1,29.0,30.27,SE,129,0.0,0.0,82,0.00,,,0.00,weatherlink.com 1.10,2013-01-09 04:18:00,
2013-01-08 23:33:00,33.5,29.0,30.27,SE,129,0.0,0.0,82,0.00,,,0.00,weatherlink.com 1.10,2013-01-09 04:33:00,
2013-01-08 23:48:00,32.9,28.0,30.27,SE,129,0.0,0.0,83,0.00,,,0.00,weatherlink.com 1.10,2013-01-09 04:48:00,